Time;durP1;ratioP1;P1;durP2;ratioP2;P2;SDS_P1;SDS_P2;PMS_P1;PMS_P2;Temp;Humidity;BMP_temperature;BMP_pressure;BME280_temperature;BME280_humidity;BME280_pressure;Samples;Min_cycle;Max_cycle;Signal;HPM_P1;HPM_P2
2022/04/10 00:00:30;;;;;;;13.30;2.10;;;3.80;99.90;;;;;;5061985;28;20044;-72
2022/04/10 00:02:56;;;;;;;18.40;2.90;;;3.80;99.90;;;;;;5078627;28;20040;-72
2022/04/10 00:05:22;;;;;;;18.13;2.53;;;3.80;99.90;;;;;;5078809;28;20121;-72
2022/04/10 00:07:47;;;;;;;14.27;2.35;;;3.80;99.90;;;;;;5078502;28;20488;-72
2022/04/10 00:10:13;;;;;;;17.17;2.85;;;3.80;99.90;;;;;;5079265;28;20127;-72
2022/04/10 00:12:38;;;;;;;14.35;2.50;;;3.70;99.90;;;;;;5078511;28;20079;-72
2022/04/10 00:15:05;;;;;;;13.70;2.80;;;3.70;99.90;;;;;;5078653;28;20438;-72
2022/04/10 00:17:30;;;;;;;19.73;3.25;;;3.70;99.90;;;;;;5078551;28;20089;-72
2022/04/10 00:19:56;;;;;;;12.57;2.30;;;3.70;99.90;;;;;;5078568;28;20396;-72
2022/04/10 00:22:21;;;;;;;11.35;2.35;;;3.70;99.90;;;;;;5078523;28;20396;-72
2022/04/10 00:24:47;;;;;;;14.82;2.95;;;3.70;99.90;;;;;;5078256;28;20404;-72
2022/04/10 00:27:14;;;;;;;16.60;3.35;;;3.70;99.90;;;;;;5061668;28;20178;-72
2022/04/10 00:29:43;;;;;;;17.40;2.70;;;3.70;99.90;;;;;;5077939;28;20055;-72
2022/04/10 00:32:09;;;;;;;11.77;2.15;;;3.70;99.90;;;;;;5077975;28;20055;-72
2022/04/10 00:34:34;;;;;;;18.13;2.70;;;3.70;99.90;;;;;;5078317;28;20032;-72
2022/04/10 00:37:00;;;;;;;11.18;2.13;;;3.70;99.90;;;;;;5061345;28;20413;-72
2022/04/10 00:39:26;;;;;;;15.20;2.75;;;3.70;99.90;;;;;;5078118;28;20040;-72
2022/04/10 00:41:52;;;;;;;13.25;2.22;;;3.70;99.90;;;;;;5078170;28;20040;-72
2022/04/10 00:44:18;;;;;;;14.30;2.33;;;3.70;99.90;;;;;;5078719;28;20127;-72
2022/04/10 00:46:43;;;;;;;15.13;2.30;;;3.70;99.90;;;;;;5077882;28;20040;-72
2022/04/10 00:49:09;;;;;;;13.50;2.42;;;3.70;99.90;;;;;;5061007;28;20040;-72
2022/04/10 00:51:41;;;;;;;14.20;2.65;;;3.60;99.90;;;;;;5061687;28;20040;-72
2022/04/10 00:54:15;;;;;;;11.98;2.28;;;3.70;99.90;;;;;;5078014;28;20036;-72
2022/04/10 00:56:42;;;;;;;15.20;2.53;;;3.60;99.90;;;;;;5077601;28;20036;-72
2022/04/10 00:59:08;;;;;;;11.23;2.03;;;3.50;99.90;;;;;;5078044;28;20028;-72
2022/04/10 01:01:34;;;;;;;20.05;3.03;;;3.50;99.90;;;;;;5077486;28;20553;-72
2022/04/10 01:04:00;;;;;;;18.45;3.38;;;3.50;99.90;;;;;;5077523;28;20044;-72
2022/04/10 01:06:26;;;;;;;16.55;2.72;;;3.50;99.90;;;;;;5077395;28;20040;-72
2022/04/10 01:08:52;;;;;;;15.88;2.90;;;3.60;99.90;;;;;;5060663;28;20119;-72
2022/04/10 01:11:18;;;;;;;14.50;2.50;;;3.60;99.90;;;;;;5060899;28;20048;-71
2022/04/10 01:13:44;;;;;;;12.88;3.03;;;3.60;99.90;;;;;;5078069;28;20541;-71
2022/04/10 01:16:10;;;;;;;14.80;2.33;;;3.60;99.90;;;;;;5077541;28;20044;-71
2022/04/10 01:18:36;;;;;;;15.63;2.83;;;3.60;99.90;;;;;;5077193;28;20408;-71
2022/04/10 01:21:03;;;;;;;11.95;2.78;;;3.70;99.90;;;;;;5077192;28;20028;-71
2022/04/10 01:23:30;;;;;;;12.95;2.45;;;3.60;99.90;;;;;;5077154;28;20050;-71
2022/04/10 01:25:55;;;;;;;11.93;2.17;;;3.60;99.90;;;;;;5077187;28;20412;-71
2022/04/10 01:28:21;;;;;;;15.13;2.28;;;3.60;99.90;;;;;;5077004;28;20036;-71
2022/04/10 01:30:47;;;;;;;18.08;2.80;;;3.60;99.90;;;;;;5077061;28;20040;-71
2022/04/10 01:33:12;;;;;;;16.02;2.70;;;3.50;99.90;;;;;;5077002;28;20040;-71
2022/04/10 01:35:38;;;;;;;22.38;3.05;;;3.60;99.90;;;;;;5076896;28;20047;-71
2022/04/10 01:38:06;;;;;;;15.52;2.65;;;3.60;99.90;;;;;;5076683;28;20043;-71
2022/04/10 01:40:33;;;;;;;14.40;3.08;;;3.60;99.90;;;;;;5077320;28;20028;-74
2022/04/10 01:42:58;;;;;;;15.15;2.20;;;3.50;99.90;;;;;;5060057;28;20040;-74
2022/04/10 01:45:24;;;;;;;16.45;3.08;;;3.60;99.90;;;;;;5076696;28;20108;-74
2022/04/10 01:47:51;;;;;;;14.93;2.33;;;3.50;99.90;;;;;;5059972;28;20079;-74
2022/04/10 01:50:17;;;;;;;15.35;2.83;;;3.50;99.90;;;;;;5076592;28;20044;-74
2022/04/10 01:52:43;;;;;;;16.42;2.55;;;3.50;99.90;;;;;;5076449;28;20032;-74
2022/04/10 01:55:09;;;;;;;15.98;2.97;;;3.50;99.90;;;;;;5076730;28;20108;-73
2022/04/10 01:57:35;;;;;;;12.55;3.13;;;3.50;99.90;;;;;;5076354;28;20032;-74
2022/04/10 02:00:00;;;;;;;18.40;2.88;;;3.40;99.90;;;;;;5076393;28;20043;-74
2022/04/10 02:02:26;;;;;;;18.02;2.97;;;3.50;99.90;;;;;;5075937;28;20040;-74
2022/04/10 02:04:51;;;;;;;13.35;3.15;;;3.50;99.90;;;;;;5076299;28;20032;-74
2022/04/10 02:07:17;;;;;;;14.38;2.70;;;3.40;99.90;;;;;;5076285;28;20044;-75
2022/04/10 02:09:43;;;;;;;14.75;2.75;;;3.40;99.90;;;;;;5076190;28;20071;-74
2022/04/10 02:12:09;;;;;;;19.50;2.70;;;3.50;99.90;;;;;;5076030;28;20075;-74
2022/04/10 02:14:35;;;;;;;18.00;3.90;;;3.50;99.90;;;;;;5076011;28;20419;-74
2022/04/10 02:17:00;;;;;;;16.73;3.28;;;3.50;99.90;;;;;;5076334;28;20036;-74
2022/04/10 02:19:26;;;;;;;15.32;2.65;;;3.40;99.90;;;;;;5075984;28;20047;-74
2022/04/10 02:21:52;;;;;;;18.85;2.92;;;3.40;99.90;;;;;;5076002;28;20051;-73
2022/04/10 02:24:17;;;;;;;14.68;2.75;;;3.40;99.90;;;;;;5059380;28;20072;-74
2022/04/10 02:26:43;;;;;;;15.18;2.53;;;3.40;99.90;;;;;;5076157;28;20067;-74
2022/04/10 02:29:08;;;;;;;15.25;2.88;;;3.30;99.90;;;;;;5075845;28;20036;-74
2022/04/10 02:31:34;;;;;;;13.68;2.13;;;3.30;99.90;;;;;;5075813;28;20036;-74
2022/04/10 02:34:00;;;;;;;16.83;2.35;;;3.30;99.90;;;;;;5059119;28;20040;-74
2022/04/10 02:36:26;;;;;;;14.88;2.35;;;3.30;99.90;;;;;;5075752;28;20127;-74
2022/04/10 02:38:51;;;;;;;12.65;2.50;;;3.30;99.90;;;;;;5075486;28;20035;-74
2022/04/10 02:41:17;;;;;;;19.77;3.53;;;3.30;99.90;;;;;;5075720;28;20032;-74
2022/04/10 02:43:42;;;;;;;12.07;2.35;;;3.30;99.90;;;;;;5075690;28;20043;-74
2022/04/10 02:46:08;;;;;;;17.48;2.60;;;3.30;99.90;;;;;;5075654;28;20474;-74
2022/04/10 02:48:34;;;;;;;15.20;2.33;;;3.30;99.90;;;;;;5075752;28;20047;-74
2022/04/10 02:51:01;;;;;;;13.20;2.38;;;3.30;99.90;;;;;;5058810;28;20373;-74
2022/04/10 02:53:26;;;;;;;13.48;2.53;;;3.30;99.90;;;;;;5058809;28;20040;-74
2022/04/10 02:55:52;;;;;;;13.43;3.28;;;3.30;99.90;;;;;;5075468;28;20408;-74
2022/04/10 02:58:18;;;;;;;14.82;2.90;;;3.30;99.90;;;;;;5075320;28;20089;-73
2022/04/10 03:00:44;;;;;;;17.75;2.85;;;3.30;99.90;;;;;;5075450;28;20119;-74
2022/04/10 03:03:09;;;;;;;12.45;2.28;;;3.30;99.90;;;;;;5075440;28;20067;-74
2022/04/10 03:05:35;;;;;;;12.90;2.38;;;3.40;99.90;;;;;;5075339;28;20036;-74
2022/04/10 03:08:01;;;;;;;14.63;2.90;;;3.40;99.90;;;;;;5075241;28;20081;-73
2022/04/10 03:10:26;;;;;;;12.43;2.30;;;3.40;99.90;;;;;;5075308;28;20047;-74
2022/04/10 03:12:52;;;;;;;14.77;2.67;;;3.40;99.90;;;;;;5074323;28;20052;-74
2022/04/10 03:15:17;;;;;;;12.60;3.08;;;3.50;99.90;;;;;;5058833;28;20036;-74
2022/04/10 03:17:43;;;;;;;10.00;2.30;;;3.50;99.90;;;;;;5075189;28;20515;-73
2022/04/10 03:20:11;;;;;;;13.15;2.10;;;3.50;99.90;;;;;;5058574;28;20040;-74
2022/04/10 03:22:37;;;;;;;14.55;2.47;;;3.50;99.90;;;;;;5075155;28;20040;-74
2022/04/10 03:25:03;;;;;;;14.80;2.50;;;3.50;99.90;;;;;;5075147;28;20040;-74
2022/04/10 03:27:29;;;;;;;13.45;2.50;;;3.60;99.90;;;;;;5075054;28;20040;-73
2022/04/10 03:29:54;;;;;;;11.80;2.30;;;3.60;99.90;;;;;;5075136;28;20097;-74
2022/04/10 03:32:20;;;;;;;8.73;2.05;;;3.60;99.90;;;;;;5075019;28;20040;-74
2022/04/10 03:34:45;;;;;;;17.98;2.65;;;3.70;99.90;;;;;;5075350;28;20024;-74
2022/04/10 03:37:11;;;;;;;12.07;1.98;;;3.60;99.90;;;;;;5075074;28;20492;-73
2022/04/10 03:39:37;;;;;;;13.38;2.42;;;3.60;99.90;;;;;;5074819;28;20043;-74
2022/04/10 03:42:02;;;;;;;13.05;2.42;;;3.70;99.90;;;;;;5074953;28;20047;-74
2022/04/10 03:44:28;;;;;;;13.48;2.50;;;3.70;99.90;;;;;;5058293;28;20043;-74
2022/04/10 03:46:54;;;;;;;8.80;1.80;;;3.70;99.90;;;;;;5058237;28;20044;-74
2022/04/10 03:49:19;;;;;;;5.68;1.55;;;3.50;99.90;;;;;;5074843;28;20407;-73
2022/04/10 03:51:45;;;;;;;4.28;0.90;;;3.50;99.90;;;;;;5075140;28;20488;-73
2022/04/10 03:54:10;;;;;;;3.72;0.65;;;3.40;99.90;;;;;;5074936;28;20510;-73
2022/04/10 03:56:37;;;;;;;5.15;0.80;;;3.30;99.90;;;;;;5074862;28;20088;-74
2022/04/10 03:59:02;;;;;;;2.55;0.60;;;3.30;99.90;;;;;;5074714;28;20492;-74
2022/04/10 04:01:28;;;;;;;1.10;0.40;;;3.40;99.90;;;;;;5058438;28;20039;-74
2022/04/10 04:03:53;;;;;;;1.90;0.63;;;3.30;99.90;;;;;;5058164;28;20051;-74
2022/04/10 04:06:19;;;;;;;4.22;0.93;;;3.30;99.90;;;;;;5074730;28;20050;-74
2022/04/10 04:08:44;;;;;;;6.13;0.85;;;3.40;99.90;;;;;;5074680;28;20040;-73
2022/04/10 04:11:10;;;;;;;6.30;0.90;;;3.40;99.90;;;;;;5058040;28;20416;-74
2022/04/10 04:13:40;;;;;;;7.10;1.38;;;3.40;99.90;;;;;;5074623;28;20075;-74
2022/04/10 04:16:06;;;;;;;7.53;1.60;;;3.40;99.90;;;;;;5074898;28;20093;-74
2022/04/10 04:18:32;;;;;;;6.38;1.30;;;3.40;99.90;;;;;;5074617;28;20040;-74
2022/04/10 04:20:58;;;;;;;6.40;1.45;;;3.40;99.90;;;;;;5074888;28;20131;-74
2022/04/10 04:23:24;;;;;;;7.75;1.40;;;3.40;99.90;;;;;;5074796;28;20119;-74
2022/04/10 04:25:50;;;;;;;9.30;1.30;;;3.30;99.90;;;;;;5061098;28;20407;-74
2022/04/10 04:28:15;;;;;;;6.47;0.90;;;3.30;99.90;;;;;;5078168;28;20043;-73
2022/04/10 04:30:41;;;;;;;8.77;1.35;;;3.30;99.90;;;;;;5061464;28;20047;-73
2022/04/10 04:33:07;;;;;;;4.05;0.93;;;3.30;99.90;;;;;;5078017;28;20040;-74
2022/04/10 04:35:34;;;;;;;5.93;1.10;;;3.20;99.90;;;;;;5078060;28;20039;-74
2022/04/10 04:38:00;;;;;;;8.85;1.25;;;3.20;99.90;;;;;;5077918;28;20454;-74
2022/04/10 04:40:26;;;;;;;6.93;1.52;;;3.20;99.90;;;;;;5078018;28;20040;-74
2022/04/10 04:42:52;;;;;;;5.55;1.15;;;3.20;99.90;;;;;;5077983;28;20093;-74
2022/04/10 04:45:18;;;;;;;6.10;1.13;;;3.20;99.90;;;;;;5077905;28;20048;-74
2022/04/10 04:47:44;;;;;;;3.85;1.10;;;3.10;99.90;;;;;;5077717;28;20415;-73
2022/04/10 04:50:10;;;;;;;5.63;1.10;;;3.10;99.90;;;;;;5077756;28;20039;-73
2022/04/10 04:52:36;;;;;;;6.20;1.10;;;3.10;99.90;;;;;;5060976;28;20165;-74
2022/04/10 04:55:01;;;;;;;7.47;1.00;;;3.10;99.90;;;;;;5077765;28;20071;-74
2022/04/10 04:57:27;;;;;;;9.57;1.30;;;3.10;99.90;;;;;;5077606;28;20097;-73
2022/04/10 04:59:52;;;;;;;7.82;1.55;;;3.10;99.90;;;;;;5077961;28;20048;-74
2022/04/10 05:02:18;;;;;;;7.03;1.27;;;3.10;99.90;;;;;;5077802;28;20512;-74
2022/04/10 05:04:44;;;;;;;5.88;0.90;;;3.00;99.90;;;;;;5077519;28;20042;-74
2022/04/10 05:07:09;;;;;;;7.35;1.33;;;3.00;99.90;;;;;;5077717;28;20044;-74
2022/04/10 05:09:35;;;;;;;7.60;1.35;;;3.00;99.90;;;;;;5077387;28;20044;-73
2022/04/10 05:12:00;;;;;;;6.80;1.50;;;3.10;99.90;;;;;;5077334;28;20044;-73
2022/04/10 05:14:26;;;;;;;5.65;1.25;;;3.10;99.90;;;;;;5077304;28;20034;-73
2022/04/10 05:16:51;;;;;;;10.43;1.20;;;3.10;99.90;;;;;;5077312;28;20086;-74
2022/04/10 05:19:17;;;;;;;5.57;1.30;;;3.10;99.90;;;;;;5077277;28;20514;-74
2022/04/10 05:21:43;;;;;;;8.95;1.58;;;3.10;99.90;;;;;;5077221;28;20032;-74
2022/04/10 05:24:08;;;;;;;6.95;1.40;;;3.20;99.90;;;;;;5077179;28;20114;-74
2022/04/10 05:26:34;;;;;;;7.40;1.70;;;3.20;99.90;;;;;;5077181;28;20166;-73
2022/04/10 05:29:00;;;;;;;7.65;1.38;;;3.30;99.90;;;;;;5076985;28;20036;-73
2022/04/10 05:31:25;;;;;;;10.13;1.38;;;3.30;99.90;;;;;;5077061;28;20032;-73
2022/04/10 05:33:51;;;;;;;8.85;1.90;;;3.40;99.90;;;;;;5060171;28;20132;-74
2022/04/10 05:36:17;;;;;;;6.30;1.50;;;3.40;99.90;;;;;;5076083;28;20039;-74
2022/04/10 05:38:45;;;;;;;9.73;1.65;;;3.40;99.90;;;;;;5076647;28;20032;-74
2022/04/10 05:41:12;;;;;;;8.60;2.00;;;3.40;99.90;;;;;;5076796;28;20411;-74
2022/04/10 05:43:38;;;;;;;5.82;1.65;;;3.40;99.90;;;;;;5077086;28;20040;-74
2022/04/10 05:46:03;;;;;;;8.77;1.70;;;3.50;99.90;;;;;;5060080;28;20126;-74
2022/04/10 05:48:29;;;;;;;11.60;1.65;;;3.60;99.90;;;;;;5060304;28;20051;-74
2022/04/10 05:50:54;;;;;;;8.45;1.73;;;3.60;99.90;;;;;;5076918;28;20040;-74
2022/04/10 05:53:20;;;;;;;7.05;1.27;;;3.70;99.90;;;;;;5060027;28;20036;-74
2022/04/10 05:55:45;;;;;;;9.02;1.92;;;3.70;99.90;;;;;;5076542;28;20040;-74
2022/04/10 05:58:11;;;;;;;8.57;1.40;;;3.70;99.90;;;;;;5076500;28;20063;-73
2022/04/10 06:00:37;;;;;;;5.85;1.27;;;3.70;99.90;;;;;;5076526;28;20044;-74
2022/04/10 06:03:03;;;;;;;6.22;1.20;;;3.70;99.90;;;;;;5059942;28;20131;-74
2022/04/10 06:05:29;;;;;;;6.25;1.23;;;3.70;99.90;;;;;;5076305;28;20488;-74
2022/04/10 06:07:54;;;;;;;6.80;1.38;;;3.70;99.90;;;;;;5076168;28;20040;-74
2022/04/10 06:10:20;;;;;;;7.20;1.63;;;3.60;99.90;;;;;;5076271;28;20035;-74
2022/04/10 06:12:46;;;;;;;8.48;1.85;;;3.70;99.90;;;;;;5059532;28;20048;-74
2022/04/10 06:15:11;;;;;;;7.15;1.35;;;3.70;99.90;;;;;;5059570;28;20119;-74
2022/04/10 06:17:37;;;;;;;12.25;2.05;;;3.80;99.90;;;;;;5076020;28;20040;-73
2022/04/10 06:20:03;;;;;;;13.18;1.80;;;3.80;99.90;;;;;;5076123;28;20032;-74
2022/04/10 06:22:29;;;;;;;6.53;1.50;;;3.80;99.90;;;;;;5076529;28;20078;-74
2022/04/10 06:24:54;;;;;;;6.95;1.40;;;3.90;99.90;;;;;;5076501;28;20040;-76
2022/04/10 06:27:21;;;;;;;4.43;1.10;;;3.90;99.90;;;;;;5076291;28;20044;-74
2022/04/10 06:29:47;;;;;;;6.75;1.35;;;3.90;99.90;;;;;;5059683;28;20044;-74
2022/04/10 06:32:13;;;;;;;7.18;1.20;;;4.00;99.90;;;;;;5075879;28;20050;-74
2022/04/10 06:34:39;;;;;;;8.27;1.40;;;4.00;99.90;;;;;;5059321;28;20040;-74
2022/04/10 06:37:05;;;;;;;7.88;1.52;;;4.00;99.90;;;;;;5075888;28;20048;-74
2022/04/10 06:39:31;;;;;;;6.32;1.38;;;4.10;99.90;;;;;;5059160;28;20079;-72
2022/04/10 06:41:56;;;;;;;7.57;2.05;;;4.10;99.90;;;;;;5075651;28;20071;-72
2022/04/10 06:44:22;;;;;;;5.85;1.42;;;4.20;99.90;;;;;;5075707;28;20085;-71
2022/04/10 06:46:48;;;;;;;5.78;1.50;;;4.30;99.90;;;;;;5075346;28;20036;-71
2022/04/10 06:49:13;;;;;;;9.15;1.48;;;4.30;99.90;;;;;;5075557;28;20093;-71
2022/04/10 06:51:40;;;;;;;7.32;1.42;;;4.40;99.90;;;;;;5075481;28;20038;-71
2022/04/10 06:54:07;;;;;;;6.28;1.20;;;4.50;99.90;;;;;;5075451;28;20048;-71
2022/04/10 06:56:33;;;;;;;7.13;1.63;;;4.50;99.90;;;;;;5075699;28;20040;-71
2022/04/10 06:58:58;;;;;;;8.77;1.75;;;4.60;99.90;;;;;;5075382;28;20036;-71
2022/04/10 07:01:24;;;;;;;6.85;1.50;;;4.60;99.90;;;;;;5075422;28;20059;-71
2022/04/10 07:03:50;;;;;;;9.10;1.95;;;4.70;99.90;;;;;;5075351;28;20097;-71
2022/04/10 07:06:16;;;;;;;8.85;1.50;;;4.80;99.90;;;;;;5075336;28;20036;-71
2022/04/10 07:08:41;;;;;;;9.52;1.75;;;5.00;99.90;;;;;;5075549;28;20040;-71
2022/04/10 07:11:07;;;;;;;5.43;1.20;;;5.00;99.90;;;;;;5075521;28;20522;-71
2022/04/10 07:13:32;;;;;;;13.75;2.10;;;5.10;99.90;;;;;;5075164;28;20044;-71
2022/04/10 07:15:58;;;;;;;9.68;2.15;;;5.10;99.90;;;;;;5058270;28;20040;-71
2022/04/10 07:18:24;;;;;;;10.70;1.38;;;5.20;99.90;;;;;;5075088;28;20123;-71
2022/04/10 07:20:50;;;;;;;7.13;1.85;;;5.30;99.90;;;;;;5075135;28;20036;-71
2022/04/10 07:25:59;;;;;;;8.63;2.42;;;5.50;99.90;;;;;;5075141;28;20048;-71
2022/04/10 07:28:25;;;;;;;9.48;1.67;;;5.60;99.90;;;;;;5075353;28;20032;-71
2022/04/10 07:30:51;;;;;;;10.63;1.88;;;5.80;99.90;;;;;;5075169;28;20454;-75
2022/04/10 07:33:17;;;;;;;10.20;1.30;;;6.00;99.90;;;;;;5075275;28;20093;-75
2022/04/10 07:35:43;;;;;;;8.25;1.48;;;6.10;99.90;;;;;;5058462;28;20406;-74
2022/04/10 07:38:10;;;;;;;10.43;1.60;;;6.20;99.90;;;;;;5074922;28;20089;-75
2022/04/10 07:40:38;;;;;;;10.68;1.90;;;6.30;99.90;;;;;;5075489;28;20119;-75
2022/04/10 07:43:04;;;;;;;10.23;1.70;;;6.40;99.90;;;;;;5075168;28;20126;-75
2022/04/10 07:48:13;;;;;;;7.82;1.40;;;6.60;99.90;;;;;;5075486;28;20130;-73
2022/04/10 07:50:39;;;;;;;8.27;1.95;;;6.60;99.90;;;;;;5074939;28;20130;-73
2022/04/10 07:53:05;;;;;;;8.68;1.88;;;6.70;99.90;;;;;;5074833;28;20086;-73
2022/04/10 07:55:31;;;;;;;7.45;1.77;;;6.70;99.90;;;;;;5075060;28;20032;-73
2022/04/10 07:57:57;;;;;;;10.00;1.77;;;6.70;99.90;;;;;;5074836;28;20068;-74
2022/04/10 08:00:23;;;;;;;16.55;2.38;;;6.70;99.90;;;;;;5077807;28;20074;-73
2022/04/10 08:02:49;;;;;;;8.95;1.88;;;6.70;99.90;;;;;;5062010;28;20043;-74
2022/04/10 08:05:19;;;;;;;12.93;1.85;;;6.80;99.90;;;;;;5062048;28;20085;-74
2022/04/10 08:07:46;;;;;;;9.88;1.90;;;6.80;99.90;;;;;;5061917;28;20044;-72
2022/04/10 08:10:13;;;;;;;8.65;2.25;;;6.80;99.90;;;;;;5078735;28;20174;-73
2022/04/10 08:12:40;;;;;;;8.90;1.48;;;6.80;99.90;;;;;;5061973;28;20048;-72
2022/04/10 08:15:06;;;;;;;13.38;2.60;;;6.70;99.90;;;;;;5078726;28;20085;-72
2022/04/10 08:17:32;;;;;;;10.02;1.60;;;6.70;99.90;;;;;;5061587;28;20043;-73
2022/04/10 08:19:58;;;;;;;9.63;1.90;;;6.60;99.90;;;;;;5078584;28;20036;-73
2022/04/10 08:22:25;;;;;;;12.68;1.83;;;6.60;99.90;;;;;;5078330;28;20048;-72
2022/04/10 08:24:50;;;;;;;11.07;2.03;;;6.60;99.90;;;;;;5061546;28;20082;-73
2022/04/10 08:27:16;;;;;;;10.25;1.90;;;6.70;99.90;;;;;;5078273;28;20071;-73
2022/04/10 08:29:42;;;;;;;11.38;1.92;;;6.80;99.90;;;;;;5078166;28;20036;-73
2022/04/10 08:32:07;;;;;;;9.23;2.15;;;7.10;99.90;;;;;;5078087;28;20044;-73
2022/04/10 08:34:33;;;;;;;14.45;1.98;;;7.40;99.90;;;;;;5078357;28;20104;-73
2022/04/10 08:37:05;;;;;;;10.27;2.15;;;7.80;99.90;;;;;;5078314;28;20071;-73
2022/04/10 08:39:37;;;;;;;8.05;1.85;;;8.00;99.90;;;;;;5077919;28;20036;-72
2022/04/10 08:42:04;;;;;;;13.00;2.15;;;8.20;99.90;;;;;;5077984;28;20119;-72
2022/04/10 08:44:31;;;;;;;12.52;2.15;;;8.10;99.90;;;;;;5061181;28;20036;-72
2022/04/10 08:46:58;;;;;;;12.98;2.65;;;7.90;99.90;;;;;;5061151;28;20032;-73
2022/04/10 08:49:31;;;;;;;9.38;2.00;;;7.70;99.90;;;;;;5077741;28;20036;-73
2022/04/10 08:51:58;;;;;;;13.65;2.15;;;7.50;99.90;;;;;;5077749;28;20040;-73
2022/04/10 08:54:25;;;;;;;15.80;2.20;;;7.30;99.90;;;;;;5077716;28;20523;-71
2022/04/10 08:56:51;;;;;;;9.25;1.95;;;7.30;99.90;;;;;;5077983;28;20131;-70
2022/04/10 08:59:21;;;;;;;10.75;2.00;;;7.40;99.90;;;;;;5060959;28;20081;-70
2022/04/10 09:01:53;;;;;;;9.35;1.65;;;7.70;99.90;;;;;;5078684;28;20421;-73
2022/04/10 09:04:20;;;;;;;10.15;1.80;;;8.00;99.90;;;;;;5078752;28;20078;-73
2022/04/10 09:07:09;;;;;;;8.73;1.73;;;8.30;99.90;;;;;;5061138;28;20485;-73
2022/04/10 09:09:37;;;;;;;12.75;1.90;;;8.40;99.90;;;;;;5061431;28;20047;-74
2022/04/10 09:12:03;;;;;;;10.50;2.40;;;8.30;99.90;;;;;;5076563;28;20124;-73
2022/04/10 09:14:40;;;;;;;8.15;2.25;;;8.20;99.90;;;;;;5078021;28;20047;-73
2022/04/10 09:17:29;;;;;;;12.45;1.83;;;8.10;99.90;;;;;;5078066;28;20059;-74
2022/04/10 09:19:56;;;;;;;12.63;2.00;;;8.10;99.90;;;;;;5077580;28;20081;-73
2022/04/10 09:22:30;;;;;;;9.05;1.60;;;8.30;99.90;;;;;;5077288;28;20040;-73
2022/04/10 09:25:11;;;;;;;12.45;1.92;;;8.70;99.90;;;;;;5060790;28;20039;-73
2022/04/10 09:27:44;;;;;;;9.93;1.70;;;9.10;99.90;;;;;;5077083;28;20450;-73
2022/04/10 09:30:18;;;;;;;7.95;1.40;;;9.30;99.90;;;;;;5077051;28;20081;-73
2022/04/10 09:32:53;;;;;;;10.75;1.65;;;9.30;99.90;;;;;;5077223;28;20109;-74
2022/04/10 09:35:24;;;;;;;6.50;1.30;;;9.30;99.90;;;;;;5060565;28;20085;-74
2022/04/10 09:37:56;;;;;;;8.55;1.33;;;9.00;99.90;;;;;;5076843;28;20036;-74
2022/04/10 09:40:26;;;;;;;7.57;1.40;;;8.90;99.90;;;;;;5076931;28;20036;-73
2022/04/10 09:43:07;;;;;;;9.65;1.80;;;8.90;99.90;;;;;;5076855;28;20046;-73
2022/04/10 09:45:38;;;;;;;9.20;1.58;;;9.00;99.90;;;;;;5076810;28;20079;-73
2022/04/10 09:48:20;;;;;;;10.70;2.20;;;9.10;99.90;;;;;;5076926;28;20455;-73
2022/04/10 09:50:46;;;;;;;11.07;1.48;;;9.50;99.90;;;;;;5076636;28;20036;-73
2022/04/10 09:53:12;;;;;;;8.82;1.75;;;9.90;99.90;;;;;;5076734;28;20044;-73
2022/04/10 09:55:39;;;;;;;11.10;1.92;;;10.10;99.90;;;;;;5076530;28;20400;-74
2022/04/10 09:58:07;;;;;;;9.15;1.52;;;10.30;99.90;;;;;;5076478;28;20062;-73
2022/04/10 10:00:37;;;;;;;6.40;1.42;;;10.10;99.90;;;;;;5076441;28;20492;-74
2022/04/10 10:03:03;;;;;;;10.38;2.08;;;9.80;99.90;;;;;;5059977;28;20075;-73
2022/04/10 10:05:30;;;;;;;12.65;2.40;;;9.60;99.90;;;;;;5059786;28;20442;-74
2022/04/10 10:07:56;;;;;;;10.07;1.50;;;9.60;99.90;;;;;;5076452;28;20097;-71
2022/04/10 10:10:22;;;;;;;9.30;1.40;;;9.90;99.90;;;;;;5076271;28;20043;-71
2022/04/10 10:12:51;;;;;;;8.88;1.60;;;10.20;99.90;;;;;;5076157;28;20047;-71
2022/04/10 10:15:17;;;;;;;8.07;1.92;;;10.40;99.90;;;;;;5076383;28;20043;-74
2022/04/10 10:17:43;;;;;;;10.52;1.75;;;10.40;99.90;;;;;;5075982;28;20032;-73
2022/04/10 10:20:10;;;;;;;10.68;1.70;;;10.40;99.90;;;;;;5076047;28;20051;-73
2022/04/10 10:22:36;;;;;;;10.00;1.60;;;10.50;96.70;;;;;;5076079;28;20040;-73
2022/04/10 10:25:19;;;;;;;7.90;1.73;;;10.80;95.90;;;;;;5059905;28;20523;-73
2022/04/10 10:27:56;;;;;;;10.90;1.80;;;11.20;96.40;;;;;;5076431;28;20040;-74
2022/04/10 10:30:41;;;;;;;7.70;1.67;;;11.40;94.50;;;;;;5059243;28;20047;-74
2022/04/10 10:33:14;;;;;;;9.55;2.17;;;11.70;96.20;;;;;;5076182;28;20039;-74
2022/04/10 10:35:44;;;;;;;8.05;1.50;;;12.10;95.60;;;;;;5075840;28;20046;-74
2022/04/10 10:38:27;;;;;;;11.88;2.35;;;12.10;94.90;;;;;;5059043;28;20593;-74
2022/04/10 10:41:08;;;;;;;8.60;1.50;;;11.70;82.70;;;;;;5059098;28;20044;-75
2022/04/10 10:43:33;;;;;;;7.68;1.50;;;11.20;74.50;;;;;;5075914;28;20040;-75
2022/04/10 10:45:59;;;;;;;4.90;1.35;;;11.10;90.40;;;;;;5075650;28;20047;-76
2022/04/10 10:48:31;;;;;;;8.13;1.48;;;11.30;90.30;;;;;;5075578;28;20129;-75
2022/04/10 10:51:01;;;;;;;6.32;1.58;;;11.40;87.00;;;;;;5075586;28;20036;-75
2022/04/10 10:53:47;;;;;;;8.23;1.40;;;11.50;82.70;;;;;;5076150;28;20036;-75
2022/04/10 10:56:20;;;;;;;7.50;1.25;;;11.50;77.90;;;;;;5075458;28;20039;-75
2022/04/10 10:58:50;;;;;;;9.18;1.42;;;11.50;78.80;;;;;;5075695;28;20040;-76
2022/04/10 11:01:20;;;;;;;5.22;1.20;;;11.40;82.50;;;;;;5059237;28;20044;-75
2022/04/10 11:04:05;;;;;;;7.30;1.50;;;11.20;82.40;;;;;;5075760;28;20031;-76
2022/04/10 11:06:42;;;;;;;5.25;0.98;;;11.40;84.90;;;;;;5075472;28;20044;-76
2022/04/10 11:09:31;;;;;;;7.72;1.50;;;11.30;73.40;;;;;;5058688;28;20136;-75
2022/04/10 11:11:58;;;;;;;7.25;1.23;;;11.20;75.70;;;;;;5075548;28;20120;-76
2022/04/10 11:14:30;;;;;;;6.32;1.35;;;11.00;80.00;;;;;;5075345;28;20032;-75
2022/04/10 11:17:17;;;;;;;5.40;1.30;;;11.00;81.20;;;;;;5075259;28;20044;-76
2022/04/10 11:19:46;;;;;;;7.55;0.98;;;11.10;80.50;;;;;;5075516;28;20044;-76
2022/04/10 11:22:20;;;;;;;7.60;1.67;;;11.20;82.30;;;;;;5058667;28;20032;-75
2022/04/10 11:24:50;;;;;;;7.70;1.58;;;11.50;78.70;;;;;;5058633;28;20036;-75
2022/04/10 11:27:40;;;;;;;7.85;1.30;;;11.30;85.30;;;;;;5075629;28;20125;-76
2022/04/10 11:30:06;;;;;;;7.97;1.63;;;10.90;86.50;;;;;;5075495;28;20117;-76
2022/04/10 11:33:05;;;;;;;10.90;2.05;;;10.70;97.20;;;;;;5075509;28;20036;-76
2022/04/10 11:35:39;;;;;;;11.43;1.65;;;10.50;99.90;;;;;;5046449;28;20048;-73
2022/04/10 11:38:11;;;;;;;8.00;1.70;;;10.50;99.90;;;;;;5079424;28;20036;-76
2022/04/10 11:40:42;;;;;;;10.32;1.88;;;10.90;99.90;;;;;;5079264;28;20032;-76
2022/04/10 11:43:08;;;;;;;12.70;1.90;;;11.40;99.90;;;;;;5079161;28;20173;-76
2022/04/10 11:45:35;;;;;;;6.20;1.27;;;11.90;97.90;;;;;;5079317;28;20082;-75
2022/04/10 11:48:04;;;;;;;7.50;1.35;;;12.20;89.40;;;;;;5079424;28;20089;-76
2022/04/10 11:50:30;;;;;;;9.48;1.50;;;12.30;84.30;;;;;;5079488;28;20121;-76
2022/04/10 11:53:08;;;;;;;9.57;1.45;;;12.40;81.40;;;;;;5062186;28;20531;-75
2022/04/10 11:55:47;;;;;;;6.35;1.17;;;12.50;83.60;;;;;;5079149;28;20065;-76
2022/04/10 11:58:21;;;;;;;7.78;1.15;;;12.40;77.90;;;;;;5078801;28;20032;-76
2022/04/10 12:00:51;;;;;;;4.50;1.10;;;12.30;75.00;;;;;;5079124;28;20051;-76
2022/04/10 12:03:21;;;;;;;4.88;0.95;;;12.30;76.80;;;;;;5079092;28;20131;-76
2022/04/10 12:05:48;;;;;;;8.18;1.15;;;12.60;74.40;;;;;;5078865;28;20040;-76
2022/04/10 12:08:15;;;;;;;5.70;1.08;;;12.90;73.50;;;;;;5078565;28;20040;-75
2022/04/10 12:10:41;;;;;;;6.68;1.13;;;13.20;73.10;;;;;;5078824;28;20044;-75
2022/04/10 12:13:09;;;;;;;7.53;1.48;;;13.50;69.40;;;;;;5061801;28;20523;-75
2022/04/10 12:15:35;;;;;;;6.43;1.13;;;13.60;66.90;;;;;;5078734;28;20040;-75
2022/04/10 12:18:08;;;;;;;7.70;1.15;;;13.90;70.40;;;;;;5078347;28;20040;-75
2022/04/10 12:20:35;;;;;;;6.10;1.33;;;13.90;64.00;;;;;;5078693;28;20032;-75
2022/04/10 12:23:01;;;;;;;8.30;1.45;;;13.70;63.30;;;;;;5078485;28;20048;-75
2022/04/10 12:25:28;;;;;;;7.35;1.08;;;13.60;64.60;;;;;;5078330;28;20054;-75
2022/04/10 12:27:54;;;;;;;8.38;1.38;;;13.70;64.40;;;;;;5078309;28;20051;-75
2022/04/10 12:30:21;;;;;;;9.02;1.55;;;13.70;63.20;;;;;;5078569;28;20097;-75
2022/04/10 12:32:47;;;;;;;5.93;1.27;;;13.70;64.00;;;;;;5078146;28;20052;-75
2022/04/10 12:35:14;;;;;;;6.18;1.10;;;13.80;64.40;;;;;;5078422;28;20028;-75
2022/04/10 12:37:46;;;;;;;4.93;1.02;;;13.90;62.20;;;;;;5078092;28;20122;-75
2022/04/10 12:40:12;;;;;;;;;;;13.90;58.80;;;;;;5078559;28;20047;-75
2022/04/10 12:42:40;;;;;;;4.85;0.90;;;13.70;58.10;;;;;;5078297;28;20281;-75
2022/04/10 12:45:08;;;;;;;7.82;1.15;;;13.50;60.60;;;;;;5061295;28;20044;-75
2022/04/10 12:47:40;;;;;;;6.82;1.58;;;13.20;60.90;;;;;;5078081;28;20054;-75
2022/04/10 12:50:10;;;;;;;6.87;1.43;;;13.10;60.50;;;;;;5061582;28;20040;-75
2022/04/10 12:52:40;;;;;;;4.30;0.82;;;13.30;63.50;;;;;;5077757;28;20036;-75
2022/04/10 12:55:30;;;;;;;4.93;1.25;;;13.70;60.20;;;;;;5077756;28;20073;-76
2022/04/10 12:58:04;;;;;;;6.13;1.25;;;14.00;60.00;;;;;;5060942;28;20039;-75